Skip Navigation Links
NOAA logo - Click to go to the NOAA homepage
NOAA's National Weather Service
Alaska Aviation Weather Unit
  NWS logo - Click to go to the NWS homepage
Left Navbar Graphic     22 AKDT = 06 GMT

   
NOAA is celebrating 200 years of science, service, and stewardship. Visit the NOAA 200th celebration Web site to learn more.
USA.gov is the U.S. Government's official Web portal to all Federal, state and local government Web resources and services.
Facebook
NWS on Facebook

Important Change Regarding the AAWU Web Presence

 

Over the last several months, the AAWU has been working to navigate its webpages to a nationally supported server. Security, as well as other needs, have necessitated the change.  In the process, we have made an effort to enhance the functionality of our website, as well as some of our products. As of June 20, 2017, aawu.arh.noaa.gov will be discontinued. The new AAWU web address is weather.gov/aawu. It is now live and will run in-parallel with the old site until it is discontinued. Please send any feedback or questions regarding the new webpages to nws.ar.aawu.webauthors@noaa.gov.  Thank you for your patience during this time of transition.
AAWU Home :: Display TAF Add Bookmark
TAF PAPG 280522Z 2806/2906 11005KT P6SM SCT200
     FM281700 06007KT P6SM FEW070 SCT100
      AMD LTD TO CLD VIS AND WIND 2806/2815=
METAR PAPG 280056Z 06006KT 10SM CLR 14/04 A3019 RMK AO2 SLP229 HYR THN
     SCT T01440039 $=

METAR PAPG 280156Z 08006KT 10SM CLR 14/02 A3019 RMK AO2 SLP229 HYR
 THN SCT T01440017 $=

METAR PAPG 280256Z 06005KT 10SM CLR 14/01 A3018 RMK AO2 SLP226 HYR
 THN SCT T01440011 57007 $=

METAR PAPG 280356Z 14005KT 10SM CLR 14/02 A3019 RMK AO2 SLP229 HYR THN
     SCT T01440022 $=

METAR PAPG 280456Z 11005KT 10SM FEW070 12/02 A3017 RMK AO2 SLP222
 HYR THN SCT T01170017 $=

METAR PAPG 280556Z 13006KT 10SM FEW070 11/02 A3017 RMK AO2 SLP222
 HYR THN SCT T01060017 10156 20100 58003 $=


NOAA's National Weather Service
Alaska Aviation Weather Unit
6930 Sand Lake Road
Anchorage, AK 99502-1845
Disclaimer
Credits
Glossary
Privacy Policy
About Us
Career Opportunities
Contact AAWU Internet Services Site last modified: April, 17th 2012